createdAt,value
2023-03-25T00:01:09.289Z,14.90
2023-03-25T00:03:02.598Z,15.10
2023-03-25T00:04:55.735Z,16.90
2023-03-25T00:06:48.654Z,16.30
2023-03-25T00:08:41.615Z,14.90
2023-03-25T00:10:34.456Z,14.40
2023-03-25T00:12:27.909Z,15.40
2023-03-25T00:14:20.679Z,16.30
2023-03-25T00:16:15.060Z,16.30
2023-03-25T00:18:08.027Z,14.80
2023-03-25T00:20:05.128Z,13.90
2023-03-25T00:21:57.973Z,13.90
2023-03-25T00:23:51.437Z,13.20
2023-03-25T00:25:45.201Z,12.80
2023-03-25T00:27:38.522Z,13.30
2023-03-25T00:29:31.608Z,13.10
2023-03-25T00:31:24.458Z,14.50
2023-03-25T00:33:18.430Z,14.60
2023-03-25T00:35:13.736Z,15.30
2023-03-25T00:37:06.781Z,14.30
2023-03-25T00:38:59.626Z,14.50
2023-03-25T00:40:53.421Z,15.20
2023-03-25T00:42:50.525Z,13.80
2023-03-25T00:44:43.905Z,14.60
2023-03-25T00:46:36.840Z,16.10
2023-03-25T00:48:30.205Z,15.20
2023-03-25T00:50:24.764Z,15.60
2023-03-25T00:52:18.471Z,16.10
2023-03-25T00:54:11.811Z,15.70
2023-03-25T00:56:05.886Z,15.10
2023-03-25T00:57:58.734Z,14.20
2023-03-25T00:59:51.730Z,15.00
2023-03-25T01:01:46.323Z,14.50
2023-03-25T01:03:40.957Z,12.30
2023-03-25T01:05:34.211Z,12.10
2023-03-25T01:07:29.511Z,11.80
2023-03-25T01:09:22.563Z,13.00
2023-03-25T01:11:21.661Z,12.10
2023-03-25T01:13:16.141Z,14.30
2023-03-25T01:15:11.211Z,13.00
2023-03-25T01:17:04.395Z,13.10
2023-03-25T01:18:57.647Z,13.20
2023-03-25T01:20:51.725Z,13.30
2023-03-25T01:22:44.570Z,12.70
2023-03-25T01:24:38.031Z,13.40
2023-03-25T01:26:31.397Z,13.90
2023-03-25T01:28:24.639Z,12.70
2023-03-25T01:30:17.592Z,13.70
2023-03-25T01:32:10.537Z,13.00
2023-03-25T01:34:03.392Z,13.20
2023-03-25T01:35:56.643Z,12.00
2023-03-25T01:37:49.791Z,12.60
2023-03-25T01:39:42.638Z,12.00
2023-03-25T01:41:49.208Z,12.80
2023-03-25T01:43:42.977Z,12.60
2023-03-25T01:45:35.818Z,13.40
2023-03-25T01:47:29.624Z,12.30
2023-03-25T01:49:27.039Z,12.90
2023-03-25T01:51:29.169Z,12.20
2023-03-25T01:53:22.358Z,11.90
2023-03-25T01:55:18.132Z,10.90
2023-03-25T01:57:14.914Z,11.20
2023-03-25T01:59:11.245Z,12.50
2023-03-25T02:01:04.548Z,12.70
2023-03-25T02:03:00.128Z,12.40
2023-03-25T02:05:00.662Z,12.60
2023-03-25T02:06:55.012Z,12.10
2023-03-25T02:08:49.296Z,11.90
2023-03-25T02:10:46.520Z,12.80
2023-03-25T02:12:41.061Z,12.40
2023-03-25T02:14:37.292Z,12.00
2023-03-25T02:16:38.216Z,11.40
2023-03-25T02:18:52.945Z,12.80
2023-03-25T02:21:10.916Z,12.50
2023-03-25T02:23:22.307Z,11.80
2023-03-25T02:25:24.021Z,12.00
2023-03-25T02:27:51.579Z,13.10
2023-03-25T02:30:07.173Z,12.40
2023-03-25T02:32:18.639Z,12.10
2023-03-25T02:34:33.516Z,11.90
2023-03-25T02:36:48.783Z,11.80
2023-03-25T02:38:53.798Z,12.00
2023-03-25T02:40:55.847Z,10.70
2023-03-25T02:42:58.973Z,11.00
2023-03-25T02:45:12.683Z,11.90
2023-03-25T02:47:09.371Z,11.30
2023-03-25T02:49:07.794Z,11.00
2023-03-25T02:51:10.332Z,10.80
2023-03-25T02:53:08.859Z,11.30
2023-03-25T02:55:10.605Z,11.60
2023-03-25T02:57:05.507Z,12.00
2023-03-25T02:59:01.310Z,13.20
2023-03-25T03:00:58.947Z,13.50
2023-03-25T03:02:59.829Z,15.10
2023-03-25T03:04:56.872Z,16.60
2023-03-25T03:06:49.797Z,19.50
2023-03-25T03:09:02.659Z,16.50
2023-03-25T03:11:17.773Z,15.20
2023-03-25T03:13:22.819Z,15.40
2023-03-25T03:15:38.692Z,16.40
2023-03-25T03:17:40.526Z,14.60
2023-03-25T03:19:40.985Z,13.40
2023-03-25T03:21:41.296Z,12.20
2023-03-25T03:23:54.827Z,12.00
2023-03-25T03:26:00.101Z,11.70
2023-03-25T03:28:05.826Z,10.70
2023-03-25T03:30:26.814Z,10.60
2023-03-25T03:32:31.531Z,10.60
2023-03-25T03:34:41.282Z,10.70
2023-03-25T03:36:41.504Z,9.70
2023-03-25T03:38:41.416Z,11.50
2023-03-25T03:40:37.539Z,12.60
2023-03-25T03:42:37.861Z,13.00
2023-03-25T03:44:35.552Z,11.40
2023-03-25T03:46:51.505Z,11.40
2023-03-25T03:48:49.685Z,10.50
2023-03-25T03:50:51.127Z,10.70
2023-03-25T03:52:50.710Z,9.70
2023-03-25T03:54:53.198Z,10.20
2023-03-25T03:56:54.779Z,9.90
2023-03-25T03:58:53.221Z,9.90
2023-03-25T04:02:50.982Z,10.20
2023-03-25T04:04:43.946Z,10.40
2023-03-25T04:06:42.382Z,10.30
2023-03-25T04:08:51.970Z,11.10
2023-03-25T04:11:05.288Z,11.90
2023-03-25T04:13:02.272Z,10.20
2023-03-25T04:14:56.208Z,9.30
2023-03-25T04:16:49.064Z,10.20
2023-03-25T04:18:43.699Z,10.80
2023-03-25T04:20:36.931Z,10.40
2023-03-25T04:22:30.354Z,10.50
2023-03-25T04:24:25.355Z,10.10
2023-03-25T04:26:18.910Z,10.40
2023-03-25T04:28:13.899Z,10.40
2023-03-25T04:30:08.441Z,10.90
2023-03-25T04:32:01.497Z,10.90
2023-03-25T04:33:54.385Z,10.70
2023-03-25T04:35:51.010Z,10.50
2023-03-25T04:37:46.035Z,11.80
2023-03-25T04:39:39.991Z,10.60
2023-03-25T04:41:33.851Z,10.20
2023-03-25T04:43:28.657Z,10.20
2023-03-25T04:45:21.777Z,10.40
2023-03-25T04:47:24.508Z,10.80
2023-03-25T04:49:22.326Z,11.10
2023-03-25T04:51:16.117Z,11.00
2023-03-25T04:53:09.889Z,10.30
2023-03-25T04:55:02.726Z,10.50
2023-03-25T04:56:56.562Z,10.40
2023-03-25T04:58:49.542Z,9.90
2023-03-25T05:00:44.875Z,10.90
2023-03-25T05:02:38.561Z,9.90
2023-03-25T05:04:32.305Z,9.50
2023-03-25T05:06:26.271Z,12.30
2023-03-25T05:08:21.878Z,14.70
2023-03-25T05:10:15.826Z,17.20
2023-03-25T05:12:11.486Z,12.60
2023-03-25T05:14:04.697Z,12.40
2023-03-25T05:15:57.578Z,11.20
2023-03-25T05:17:50.550Z,11.10
2023-03-25T05:19:44.667Z,10.80
2023-03-25T05:21:39.735Z,11.30
2023-03-25T05:23:32.612Z,10.50
2023-03-25T05:25:25.592Z,10.40
2023-03-25T05:27:20.366Z,10.00
2023-03-25T05:29:15.865Z,10.40
2023-03-25T05:31:08.699Z,9.90
2023-03-25T05:33:01.743Z,9.90
2023-03-25T05:34:54.703Z,9.50
2023-03-25T05:36:47.871Z,12.90
2023-03-25T05:38:41.923Z,24.20
2023-03-25T05:40:36.207Z,24.40
2023-03-25T05:42:29.162Z,25.20
2023-03-25T05:44:22.003Z,35.40
2023-03-25T05:46:15.616Z,28.20
2023-03-25T05:48:09.038Z,20.90
2023-03-25T05:50:02.075Z,15.40
2023-03-25T05:51:56.368Z,14.60
2023-03-25T05:53:52.294Z,15.10
2023-03-25T05:55:47.727Z,14.70
2023-03-25T05:57:40.937Z,12.10
2023-03-25T05:59:33.789Z,12.30
2023-03-25T06:01:33.398Z,13.80
2023-03-25T06:03:27.935Z,13.60
2023-03-25T06:05:23.983Z,11.20
2023-03-25T06:07:20.543Z,13.30
2023-03-25T06:09:13.368Z,12.40
2023-03-25T06:11:07.045Z,11.90
2023-03-25T06:12:59.787Z,14.50
2023-03-25T06:14:54.366Z,10.50
2023-03-25T06:16:50.200Z,12.80
2023-03-25T06:18:43.026Z,10.80
2023-03-25T06:20:35.976Z,10.20
2023-03-25T06:22:28.821Z,11.40
2023-03-25T06:24:22.284Z,11.20
2023-03-25T06:26:19.327Z,10.60
2023-03-25T06:28:12.169Z,10.40
2023-03-25T06:30:06.246Z,9.90
2023-03-25T06:31:59.295Z,9.50
2023-03-25T06:33:53.370Z,10.10
2023-03-25T06:35:54.737Z,10.40
2023-03-25T06:37:49.163Z,11.00
2023-03-25T06:39:50.405Z,12.60
2023-03-25T06:41:46.462Z,14.30
2023-03-25T06:43:43.303Z,18.30
2023-03-25T06:46:05.146Z,13.80
2023-03-25T06:48:18.250Z,12.10
2023-03-25T06:50:11.506Z,12.60
2023-03-25T06:52:04.563Z,12.40
2023-03-25T06:53:57.593Z,12.30
2023-03-25T06:55:51.134Z,14.00
2023-03-25T06:57:44.532Z,9.70
2023-03-25T06:59:37.473Z,11.30
2023-03-25T07:01:30.526Z,10.40
2023-03-25T07:03:23.438Z,11.10
2023-03-25T07:05:17.309Z,11.60
2023-03-25T07:07:10.494Z,10.20
2023-03-25T07:09:03.860Z,9.60
2023-03-25T07:11:05.291Z,9.30
2023-03-25T07:12:58.097Z,9.40
2023-03-25T07:14:52.837Z,9.10
2023-03-25T07:16:45.830Z,8.20
2023-03-25T07:18:38.737Z,9.50
2023-03-25T07:20:31.682Z,9.00
2023-03-25T07:22:24.529Z,8.90
2023-03-25T07:24:17.373Z,9.20
2023-03-25T07:26:10.834Z,9.60
2023-03-25T07:28:03.782Z,10.30
2023-03-25T07:29:57.039Z,9.30
2023-03-25T07:31:50.243Z,8.70
2023-03-25T07:33:43.243Z,8.60
2023-03-25T07:35:36.315Z,8.50
2023-03-25T07:37:29.241Z,8.90
2023-03-25T07:39:22.185Z,9.10
2023-03-25T07:41:15.440Z,9.30
2023-03-25T07:43:32.968Z,7.70
2023-03-25T07:45:48.064Z,7.70
2023-03-25T07:47:40.942Z,8.30
2023-03-25T07:49:33.933Z,7.20
2023-03-25T07:51:27.083Z,8.00
2023-03-25T07:53:20.648Z,8.70
2023-03-25T07:55:14.625Z,8.40
2023-03-25T07:57:07.524Z,9.60
2023-03-25T07:59:00.827Z,7.30
2023-03-25T08:00:57.459Z,7.50
2023-03-25T08:02:50.871Z,7.10
2023-03-25T08:04:43.768Z,7.30
2023-03-25T08:06:36.916Z,7.80
2023-03-25T08:08:30.376Z,8.50
2023-03-25T08:10:23.223Z,11.40
2023-03-25T08:12:16.476Z,7.40
2023-03-25T08:14:12.351Z,7.00
2023-03-25T08:16:12.108Z,8.00
2023-03-25T08:18:07.171Z,6.20
2023-03-25T08:20:01.192Z,6.30
2023-03-25T08:21:54.423Z,6.80
2023-03-25T08:23:47.884Z,7.10
2023-03-25T08:25:43.701Z,6.20
2023-03-25T08:27:36.645Z,5.70
2023-03-25T08:29:30.107Z,6.40
2023-03-25T08:31:23.281Z,6.40
2023-03-25T08:33:18.977Z,6.30
2023-03-25T08:35:13.144Z,6.30
2023-03-25T08:37:10.141Z,7.10
2023-03-25T08:39:08.054Z,8.00
2023-03-25T08:41:01.718Z,8.50
2023-03-25T08:42:55.588Z,6.30
2023-03-25T08:44:48.432Z,7.70
2023-03-25T08:46:41.350Z,6.50
2023-03-25T08:48:38.447Z,5.90
2023-03-25T08:50:31.887Z,6.00
2023-03-25T08:52:24.953Z,5.60
2023-03-25T08:54:17.735Z,5.50
2023-03-25T08:56:11.352Z,5.80
2023-03-25T08:58:06.325Z,4.90
2023-03-25T08:59:59.211Z,5.90
2023-03-25T09:01:53.898Z,5.20
2023-03-25T09:03:48.045Z,4.80
2023-03-25T09:05:40.943Z,4.90
2023-03-25T09:07:34.162Z,4.60
2023-03-25T09:09:26.930Z,4.80
2023-03-25T09:11:30.213Z,4.50
2023-03-25T09:13:29.293Z,5.10
2023-03-25T09:15:22.340Z,4.40
2023-03-25T09:17:15.599Z,4.50
2023-03-25T09:19:10.032Z,4.10
2023-03-25T09:21:03.743Z,4.40
2023-03-25T09:22:56.581Z,4.00
2023-03-25T09:24:49.632Z,3.90
2023-03-25T09:26:42.478Z,3.60
2023-03-25T09:28:35.324Z,3.50
2023-03-25T09:30:28.996Z,3.80
2023-03-25T09:32:30.502Z,3.30
2023-03-25T09:34:25.880Z,3.30
2023-03-25T09:36:20.512Z,3.10
2023-03-25T09:38:16.508Z,3.60
2023-03-25T09:40:14.475Z,3.80
2023-03-25T09:42:19.547Z,3.20
2023-03-25T09:44:26.194Z,3.70
2023-03-25T09:46:19.504Z,3.20
2023-03-25T09:48:37.596Z,3.60
2023-03-25T09:50:34.199Z,5.00
2023-03-25T09:52:33.348Z,3.80
2023-03-25T09:54:31.959Z,3.90
2023-03-25T09:56:28.893Z,3.90
2023-03-25T09:58:22.239Z,3.90
2023-03-25T10:00:22.634Z,4.30
2023-03-25T10:02:41.726Z,4.50
2023-03-25T10:05:15.000Z,4.40
2023-03-25T10:07:41.436Z,5.10
2023-03-25T10:09:34.174Z,4.90
2023-03-25T10:11:33.166Z,6.00
2023-03-25T10:13:37.541Z,4.50
2023-03-25T10:15:50.872Z,3.80
2023-03-25T10:17:56.823Z,4.60
2023-03-25T10:20:09.576Z,4.30
2023-03-25T10:22:04.521Z,5.20
2023-03-25T10:24:24.040Z,6.50
2023-03-25T10:26:25.442Z,4.40
2023-03-25T10:28:22.944Z,3.20
2023-03-25T10:30:23.260Z,2.60
2023-03-25T10:32:33.941Z,2.50
2023-03-25T10:34:37.414Z,3.00
2023-03-25T10:36:50.014Z,2.60
2023-03-25T10:38:43.724Z,4.30
2023-03-25T10:40:40.319Z,4.40
2023-03-25T10:42:43.037Z,3.20
2023-03-25T10:44:35.954Z,4.00
2023-03-25T10:46:46.929Z,4.30
2023-03-25T10:48:40.079Z,4.80
2023-03-25T10:50:32.923Z,3.20
2023-03-25T10:52:26.282Z,3.90
2023-03-25T10:54:20.262Z,3.40
2023-03-25T10:56:17.805Z,4.80
2023-03-25T10:58:17.727Z,3.00
2023-03-25T11:00:18.832Z,3.20
2023-03-25T11:02:18.483Z,3.20
2023-03-25T11:04:19.419Z,2.90
2023-03-25T11:06:26.679Z,2.70
2023-03-25T11:08:24.958Z,2.60
2023-03-25T11:10:24.410Z,2.10
2023-03-25T11:12:33.311Z,2.40
2023-03-25T11:14:30.844Z,6.00
2023-03-25T11:16:24.011Z,3.80
2023-03-25T11:18:28.920Z,2.50
2023-03-25T11:20:27.905Z,2.30
2023-03-25T11:22:28.527Z,1.80
2023-03-25T11:24:23.733Z,1.70
2023-03-25T11:26:21.604Z,2.10
2023-03-25T11:28:44.657Z,1.50
2023-03-25T11:31:00.894Z,2.30
2023-03-25T11:33:11.968Z,3.70
2023-03-25T11:35:22.227Z,3.10
2023-03-25T11:37:25.008Z,3.30
2023-03-25T11:39:22.608Z,5.20
2023-03-25T11:41:15.693Z,3.90
2023-03-25T11:43:09.632Z,4.90
2023-03-25T11:45:03.961Z,8.50
2023-03-25T11:47:02.217Z,8.40
2023-03-25T11:50:54.691Z,17.60
2023-03-25T11:52:50.605Z,17.10
2023-03-25T11:54:45.353Z,15.60
2023-03-25T11:56:44.981Z,12.60
2023-03-25T11:58:40.777Z,20.40
2023-03-25T12:00:48.481Z,11.50
2023-03-25T12:02:42.242Z,5.00
2023-03-25T12:04:37.407Z,3.60
2023-03-25T12:06:30.710Z,3.90
2023-03-25T12:08:26.250Z,3.50
2023-03-25T12:10:36.238Z,3.60
2023-03-25T12:12:45.587Z,2.80
2023-03-25T12:15:07.703Z,2.90
2023-03-25T12:17:04.790Z,3.80
2023-03-25T12:19:19.308Z,4.30
2023-03-25T12:21:29.665Z,8.10
2023-03-25T12:24:02.853Z,7.10
2023-03-25T12:25:58.564Z,6.90
2023-03-25T12:28:30.909Z,5.70
2023-03-25T12:30:48.855Z,6.50
2023-03-25T12:33:13.887Z,4.60
2023-03-25T12:35:47.741Z,4.50
2023-03-25T12:38:11.076Z,4.00
2023-03-25T12:40:19.466Z,5.60
2023-03-25T12:42:35.541Z,6.20
2023-03-25T12:44:51.426Z,5.50
2023-03-25T12:47:17.549Z,5.40
2023-03-25T12:49:22.479Z,4.70
2023-03-25T12:51:31.723Z,5.40
2023-03-25T12:53:46.643Z,5.80
2023-03-25T12:55:50.784Z,6.40
2023-03-25T12:57:56.634Z,6.00
2023-03-25T13:00:23.301Z,7.20
2023-03-25T13:02:47.058Z,13.50
2023-03-25T13:04:50.218Z,5.20
2023-03-25T13:07:06.016Z,5.20
2023-03-25T13:09:31.194Z,7.30
2023-03-25T13:11:45.982Z,4.10
2023-03-25T13:13:43.025Z,7.40
2023-03-25T13:15:42.001Z,20.10
2023-03-25T13:17:41.432Z,16.30
2023-03-25T13:19:41.237Z,11.40
2023-03-25T13:21:46.115Z,15.30
2023-03-25T13:23:42.492Z,8.10
2023-03-25T13:25:48.645Z,5.70
2023-03-25T13:27:42.729Z,2.80
2023-03-25T13:29:42.164Z,3.40
2023-03-25T13:31:47.126Z,3.10
2023-03-25T13:33:46.952Z,2.40
2023-03-25T13:36:08.473Z,2.50
2023-03-25T13:38:36.592Z,5.80
2023-03-25T13:40:49.043Z,2.30
2023-03-25T13:42:57.043Z,2.00
2023-03-25T13:44:54.292Z,2.60
2023-03-25T13:46:51.540Z,2.20
2023-03-25T13:48:55.194Z,2.70
2023-03-25T13:50:48.100Z,6.90
2023-03-25T13:52:45.953Z,3.50
2023-03-25T13:54:58.401Z,5.60
2023-03-25T13:57:09.975Z,8.20
2023-03-25T13:59:40.220Z,3.20
2023-03-25T14:01:52.522Z,2.30
2023-03-25T14:04:06.184Z,2.20
2023-03-25T14:06:31.097Z,2.40
2023-03-25T14:08:49.542Z,2.50
2023-03-25T14:11:01.125Z,12.70
2023-03-25T14:12:59.815Z,4.90
2023-03-25T14:15:17.234Z,4.10
2023-03-25T14:17:12.010Z,20.30
2023-03-25T14:19:13.265Z,5.90
2023-03-25T14:21:30.845Z,4.50
2023-03-25T14:23:26.388Z,9.80
2023-03-25T14:25:29.901Z,8.80
2023-03-25T14:27:30.212Z,6.70
2023-03-25T14:29:45.183Z,5.40
2023-03-25T14:31:38.201Z,5.10
2023-03-25T14:34:00.295Z,4.30
2023-03-25T14:35:53.907Z,4.50
2023-03-25T14:37:47.082Z,5.60
2023-03-25T14:39:41.147Z,4.20
2023-03-25T14:41:56.532Z,4.20
2023-03-25T14:44:09.897Z,10.40
2023-03-25T14:46:13.391Z,12.40
2023-03-25T14:48:25.924Z,16.90
2023-03-25T14:50:24.133Z,17.70
2023-03-25T14:52:22.716Z,13.90
2023-03-25T14:54:29.897Z,18.20
2023-03-25T14:56:26.408Z,19.30
2023-03-25T14:58:25.125Z,14.10
2023-03-25T15:00:26.946Z,13.10
2023-03-25T15:02:27.313Z,10.00
2023-03-25T15:04:36.725Z,4.80
2023-03-25T15:06:34.994Z,4.90
2023-03-25T15:08:40.070Z,5.70
2023-03-25T15:10:45.793Z,6.80
2023-03-25T15:12:42.921Z,5.10
2023-03-25T15:14:39.189Z,11.10
2023-03-25T15:16:36.448Z,7.80
2023-03-25T15:18:35.760Z,34.30
2023-03-25T15:20:35.813Z,15.70
2023-03-25T15:22:28.965Z,19.70
2023-03-25T15:24:30.027Z,11.80
2023-03-25T15:26:50.450Z,24.50
2023-03-25T15:29:02.335Z,39.10
2023-03-25T15:31:32.490Z,30.60
2023-03-25T15:34:03.769Z,15.80
2023-03-25T15:36:28.762Z,13.40
2023-03-25T15:38:58.621Z,6.40
2023-03-25T15:41:17.144Z,5.70
2023-03-25T15:44:00.788Z,5.30
2023-03-25T15:46:14.498Z,6.50
2023-03-25T15:48:34.462Z,7.20
2023-03-25T15:50:57.516Z,9.30
2023-03-25T15:53:10.115Z,7.20
2023-03-25T15:55:11.677Z,5.90
2023-03-25T15:57:24.341Z,7.70
2023-03-25T15:59:30.244Z,8.30
2023-03-25T16:01:35.270Z,39.20
2023-03-25T16:03:30.768Z,71.90
2023-03-25T16:05:24.106Z,47.50
2023-03-25T16:07:19.862Z,35.80
2023-03-25T16:09:20.571Z,12.90
2023-03-25T16:11:31.626Z,27.80
2023-03-25T16:13:24.443Z,39.00
2023-03-25T16:15:24.476Z,33.50
2023-03-25T16:17:20.195Z,18.30
2023-03-25T16:19:42.158Z,10.60
2023-03-25T16:21:35.469Z,13.50
2023-03-25T16:23:30.820Z,13.00
2023-03-25T16:25:35.652Z,23.30
2023-03-25T16:27:36.767Z,14.50
2023-03-25T16:29:29.646Z,17.30
2023-03-25T16:31:34.880Z,10.50
2023-03-25T16:33:37.537Z,13.00
2023-03-25T16:35:30.732Z,16.20
2023-03-25T16:37:25.676Z,31.50
2023-03-25T16:39:19.457Z,18.30
2023-03-25T16:41:16.000Z,11.00
2023-03-25T16:43:23.102Z,9.00
2023-03-25T16:45:19.193Z,8.20
2023-03-25T16:47:14.597Z,9.20
2023-03-25T16:49:12.458Z,6.80
2023-03-25T16:51:19.944Z,6.00
2023-03-25T16:53:16.547Z,5.30
2023-03-25T16:55:27.770Z,6.10
2023-03-25T16:57:24.638Z,8.80
2023-03-25T16:59:33.117Z,8.30
2023-03-25T17:01:26.900Z,13.90
2023-03-25T17:03:43.649Z,7.50
2023-03-25T17:06:04.446Z,15.20
2023-03-25T17:08:08.225Z,7.10
2023-03-25T17:10:03.578Z,9.90
2023-03-25T17:11:59.977Z,7.10
2023-03-25T17:14:05.593Z,15.60
2023-03-25T17:16:00.952Z,14.10
2023-03-25T17:18:02.144Z,26.80
2023-03-25T17:19:56.084Z,31.40
2023-03-25T17:22:04.960Z,24.60
2023-03-25T17:24:22.584Z,26.70
2023-03-25T17:26:22.242Z,26.40
2023-03-25T17:28:43.473Z,28.40
2023-03-25T17:30:45.918Z,20.40
2023-03-25T17:32:44.128Z,18.00
2023-03-25T17:36:41.679Z,20.60
2023-03-25T17:38:47.388Z,18.20
2023-03-25T17:40:40.282Z,36.30
2023-03-25T17:42:36.725Z,15.50
2023-03-25T17:44:43.660Z,16.70
2023-03-25T17:46:36.625Z,19.10
2023-03-25T17:48:29.758Z,27.90
2023-03-25T17:50:28.457Z,18.70
2023-03-25T17:52:21.397Z,11.60
2023-03-25T17:54:14.748Z,13.40
2023-03-25T17:56:14.098Z,11.40
2023-03-25T17:58:09.167Z,10.00
2023-03-25T18:00:08.556Z,10.10
2023-03-25T18:02:01.734Z,8.80
2023-03-25T18:03:55.055Z,5.70
2023-03-25T18:05:53.340Z,5.40
2023-03-25T18:07:46.582Z,4.90
2023-03-25T18:09:41.415Z,5.40
2023-03-25T18:11:34.736Z,6.90
2023-03-25T18:13:28.201Z,6.30
2023-03-25T18:15:21.140Z,6.20
2023-03-25T18:17:13.991Z,5.80
2023-03-25T18:19:18.567Z,7.60
2023-03-25T18:21:13.580Z,7.60
2023-03-25T18:23:06.552Z,7.70
2023-03-25T18:24:59.425Z,8.90
2023-03-25T18:26:52.335Z,8.30
2023-03-25T18:28:48.754Z,8.60
2023-03-25T18:30:49.365Z,6.60
2023-03-25T18:32:43.051Z,5.80
2023-03-25T18:34:37.464Z,6.70
2023-03-25T18:36:30.505Z,7.90
2023-03-25T18:38:26.425Z,9.90
2023-03-25T18:40:27.264Z,12.20
2023-03-25T18:42:20.201Z,12.60
2023-03-25T18:44:14.102Z,11.30
2023-03-25T18:46:07.164Z,11.50
2023-03-25T18:48:00.252Z,11.00
2023-03-25T18:49:55.272Z,10.70
2023-03-25T18:51:51.443Z,35.80
2023-03-25T18:53:44.395Z,23.70
2023-03-25T18:55:37.409Z,17.40
2023-03-25T18:57:30.651Z,13.80
2023-03-25T18:59:24.010Z,31.10
2023-03-25T19:01:18.804Z,16.40
2023-03-25T19:03:12.522Z,14.00
2023-03-25T19:05:06.040Z,13.30
2023-03-25T19:06:59.803Z,15.10
2023-03-25T19:08:52.633Z,15.70
2023-03-25T19:10:47.017Z,15.20
2023-03-25T19:12:39.871Z,16.00
2023-03-25T19:14:32.659Z,7.30
2023-03-25T19:16:26.284Z,7.00
2023-03-25T19:18:30.128Z,7.10
2023-03-25T19:20:25.835Z,9.90
2023-03-25T19:22:22.168Z,13.40
2023-03-25T19:24:18.151Z,9.80
2023-03-25T19:26:13.619Z,7.20
2023-03-25T19:28:07.108Z,6.70
2023-03-25T19:30:00.715Z,5.90
2023-03-25T19:31:53.935Z,6.50
2023-03-25T19:33:48.082Z,6.80
2023-03-25T19:35:43.216Z,9.00
2023-03-25T19:37:37.224Z,13.10
2023-03-25T19:39:30.115Z,11.20
2023-03-25T19:41:23.086Z,8.30
2023-03-25T19:43:16.421Z,7.90
2023-03-25T19:45:13.680Z,9.00
2023-03-25T19:47:07.233Z,8.50
2023-03-25T19:49:00.597Z,7.40
2023-03-25T19:50:56.796Z,12.70
2023-03-25T19:52:54.131Z,12.20
2023-03-25T19:56:42.867Z,9.00
2023-03-25T19:58:36.291Z,7.20
2023-03-25T20:00:30.769Z,8.00
2023-03-25T20:02:24.526Z,8.50
2023-03-25T20:04:18.305Z,8.10
2023-03-25T20:06:11.361Z,9.20
2023-03-25T20:08:05.173Z,8.70
2023-03-25T20:10:04.365Z,8.60
2023-03-25T20:12:03.010Z,10.00
2023-03-25T20:13:55.852Z,10.20
2023-03-25T20:15:50.623Z,9.70
2023-03-25T20:17:44.113Z,9.20
2023-03-25T20:19:37.570Z,9.60
2023-03-25T20:21:30.406Z,8.50
2023-03-25T20:23:24.239Z,9.30
2023-03-25T20:25:18.281Z,10.50
2023-03-25T20:27:11.100Z,10.30
2023-03-25T20:29:04.355Z,9.90
2023-03-25T20:30:58.273Z,10.00
2023-03-25T20:32:51.202Z,8.10
2023-03-25T20:34:44.224Z,8.70
2023-03-25T20:36:37.170Z,8.90
2023-03-25T20:38:30.014Z,8.60
2023-03-25T20:40:27.994Z,8.80
2023-03-25T20:42:27.077Z,8.60
2023-03-25T20:44:20.661Z,8.40
2023-03-25T20:46:15.041Z,8.00
2023-03-25T20:48:08.964Z,7.70
2023-03-25T20:50:02.984Z,7.50
2023-03-25T20:51:57.451Z,7.50
2023-03-25T20:53:52.138Z,6.90
2023-03-25T20:55:44.979Z,7.50
2023-03-25T20:57:39.539Z,7.70
2023-03-25T20:59:32.943Z,7.00
2023-03-25T21:01:25.901Z,7.60
2023-03-25T21:03:20.371Z,6.50
2023-03-25T21:05:17.036Z,5.90
2023-03-25T21:07:13.075Z,6.00
2023-03-25T21:09:12.597Z,6.20
2023-03-25T21:11:08.880Z,5.80
2023-03-25T21:13:05.479Z,6.00
2023-03-25T21:14:59.894Z,5.50
2023-03-25T21:16:55.685Z,5.30
2023-03-25T21:18:51.384Z,5.40
2023-03-25T21:20:52.949Z,5.50
2023-03-25T21:22:51.610Z,5.60
2023-03-25T21:24:45.626Z,5.80
2023-03-25T21:26:38.799Z,6.00
2023-03-25T21:28:37.109Z,5.70
2023-03-25T21:30:35.452Z,5.60
2023-03-25T21:34:27.297Z,5.40
2023-03-25T21:36:25.859Z,5.60
2023-03-25T21:38:29.151Z,5.40
2023-03-25T21:40:25.252Z,5.30
2023-03-25T21:42:21.107Z,8.40
2023-03-25T21:44:17.375Z,9.80
2023-03-25T21:46:15.248Z,6.30
2023-03-25T21:48:12.514Z,7.40
2023-03-25T21:50:10.383Z,5.90
2023-03-25T21:52:07.510Z,6.10
2023-03-25T21:54:03.853Z,5.70
2023-03-25T21:56:04.470Z,6.10
2023-03-25T21:58:00.827Z,5.80
2023-03-25T21:59:55.348Z,5.50
2023-03-25T22:01:50.509Z,6.20
2023-03-25T22:03:47.250Z,5.20
2023-03-25T22:05:46.292Z,5.40
2023-03-25T22:07:43.823Z,5.60
2023-03-25T22:09:40.682Z,6.30
2023-03-25T22:11:38.373Z,6.40
2023-03-25T22:13:33.838Z,6.70
2023-03-25T22:15:26.783Z,6.20
2023-03-25T22:17:19.560Z,6.10
2023-03-25T22:19:12.486Z,6.20
2023-03-25T22:21:14.851Z,7.10
2023-03-25T22:23:10.666Z,7.00
2023-03-25T22:25:05.058Z,6.70
2023-03-25T22:27:01.749Z,6.70
2023-03-25T22:29:03.311Z,6.90
2023-03-25T22:30:59.871Z,7.00
2023-03-25T22:32:53.986Z,7.90
2023-03-25T22:34:48.504Z,6.90
2023-03-25T22:36:51.184Z,7.70
2023-03-25T22:38:52.025Z,7.20
2023-03-25T22:40:47.949Z,7.70
2023-03-25T22:42:44.856Z,6.60
2023-03-25T22:44:41.371Z,7.30
2023-03-25T22:46:37.386Z,7.40
2023-03-25T22:48:34.966Z,7.30
2023-03-25T22:50:32.161Z,6.90
2023-03-25T22:52:30.071Z,6.60
2023-03-25T22:54:25.971Z,7.40
2023-03-25T22:56:26.141Z,7.10
2023-03-25T22:58:24.606Z,6.70
2023-03-25T23:00:20.592Z,7.70
2023-03-25T23:02:17.851Z,6.70
2023-03-25T23:04:12.899Z,6.70
2023-03-25T23:06:11.277Z,7.50
2023-03-25T23:08:09.290Z,6.40
2023-03-25T23:10:16.127Z,5.90
2023-03-25T23:12:24.667Z,6.00
2023-03-25T23:14:18.189Z,5.50
2023-03-25T23:16:14.028Z,6.40
2023-03-25T23:18:06.987Z,5.70
2023-03-25T23:19:59.899Z,5.20
2023-03-25T23:21:54.397Z,5.30
2023-03-25T23:23:53.081Z,5.70
2023-03-25T23:25:46.628Z,4.90
2023-03-25T23:27:39.480Z,5.30
2023-03-25T23:29:33.249Z,5.40
2023-03-25T23:31:34.150Z,4.80
2023-03-25T23:33:28.150Z,5.90
2023-03-25T23:35:21.436Z,4.80
2023-03-25T23:37:14.868Z,5.10
2023-03-25T23:39:10.833Z,5.30
2023-03-25T23:41:12.411Z,5.80
2023-03-25T23:43:06.311Z,7.50
2023-03-25T23:45:00.279Z,8.10
2023-03-25T23:46:53.369Z,6.80
2023-03-25T23:48:47.567Z,7.10
2023-03-25T23:50:41.992Z,7.30
2023-03-25T23:52:34.779Z,8.40
2023-03-25T23:54:27.877Z,8.20
2023-03-25T23:56:23.287Z,9.70
2023-03-25T23:58:16.444Z,8.40
